Time;durP1;ratioP1;P1;durP2;ratioP2;P2;SDS_P1;SDS_P2;PMS_P1;PMS_P2;Temp;Humidity;BMP_temperature;BMP_pressure;BME280_temperature;BME280_humidity;BME280_pressure;Samples;Min_cycle;Max_cycle;Signal;HPM_P1;HPM_P2
2022/02/01 00:03:10;;;;;;;14.23;8.30;;;;;;;;;;5072263;28;20016;-75
2022/02/01 00:05:47;;;;;;;20.60;8.40;;;;;;;;;;5071131;28;20130;-76
2022/02/01 00:11:22;;;;;;;18.07;8.03;;;;;;;;;;5072472;28;20054;-75
2022/02/01 00:35:35;;;;;;;14.37;6.93;;;;;;;;;;5071000;28;20032;-74
2022/02/01 00:38:10;;;;;;;18.43;6.83;;;;;;;;;;5069179;28;20498;-75
2022/02/01 00:40:38;;;;;;;11.80;6.90;;;;;;;;;;5069210;28;20120;-74
2022/02/01 00:43:08;;;;;;;15.07;8.00;;;;;;;;;;5069186;28;20031;-76
2022/02/01 00:45:34;;;;;;;15.13;8.40;;;;;;;;;;5068955;28;20107;-75
2022/02/01 00:47:59;;;;;;;19.60;7.47;;;;;;;;;;5069908;28;20123;-75
2022/02/01 00:50:25;;;;;;;19.10;7.87;;;;;;;;;;5068808;28;20024;-75
2022/02/01 00:52:51;;;;;;;16.83;7.70;;;;;;;;;;5070082;28;20031;-75
2022/02/01 00:55:17;;;;;;;19.63;8.17;;;;;;;;;;5068327;28;20035;-75
2022/02/01 00:57:42;;;;;;;14.50;6.57;;;;;;;;;;5068440;28;20422;-75
2022/02/01 01:00:11;;;;;;;18.67;8.77;;;;;;;;;;5070187;28;20056;-75
2022/02/01 01:02:37;;;;;;;13.27;7.23;;;;;;;;;;5070082;28;20020;-74
2022/02/01 01:05:03;;;;;;;17.40;7.47;;;;;;;;;;5068367;28;20030;-75
2022/02/01 01:07:29;;;;;;;16.47;7.80;;;;;;;;;;5069755;28;20090;-75
2022/02/01 01:09:56;;;;;;;15.20;7.23;;;;;;;;;;5068302;28;20037;-76
2022/02/01 01:12:23;;;;;;;15.37;8.43;;;;;;;;;;5069941;28;20345;-75
2022/02/01 01:15:15;;;;;;;16.77;7.27;;;;;;;;;;5069554;28;20032;-74
2022/02/01 01:44:59;;;;;;;22.47;7.97;;;;;;;;;;5069590;28;20082;-75
2022/02/01 01:53:19;;;;;;;21.67;8.03;;;;;;;;;;5069390;28;20032;-74
2022/02/01 01:55:48;;;;;;;16.30;7.60;;;;;;;;;;5067474;28;20048;-74
2022/02/01 01:58:16;;;;;;;20.90;7.87;;;;;;;;;;5067561;28;20024;-75
2022/02/01 02:03:47;;;;;;;16.97;6.97;;;;;;;;;;5026468;28;20678;-75
2022/02/01 02:06:15;;;;;;;23.20;8.00;;;;;;;;;;5059685;28;20064;-74
2022/02/01 02:08:45;;;;;;;19.10;8.23;;;;;;;;;;5070294;28;20095;-76
2022/02/01 02:11:17;;;;;;;19.83;8.57;;;;;;;;;;5069155;28;20070;-75
2022/02/01 02:16:35;;;;;;;14.97;6.53;;;;;;;;;;5089309;28;19918;-74
2022/02/01 02:19:01;;;;;;;21.27;6.90;;;;;;;;;;5087611;28;20116;-76
2022/02/01 02:21:27;;;;;;;27.13;8.20;;;;;;;;;;5092433;28;20067;-75
2022/02/01 02:23:52;;;;;;;23.37;8.57;;;;;;;;;;5092402;28;20636;-75
2022/02/01 02:26:18;;;;;;;22.07;7.87;;;;;;;;;;5071804;28;20035;-75
2022/02/01 02:28:46;;;;;;;16.97;7.83;;;;;;;;;;5072718;28;20043;-75
2022/02/01 02:31:11;;;;;;;20.87;7.90;;;;;;;;;;5071318;28;20105;-74
2022/02/01 02:33:37;;;;;;;15.47;7.73;;;;;;;;;;5071656;28;20488;-76
2022/02/01 02:36:11;;;;;;;26.23;8.90;;;;;;;;;;5071118;28;20285;-75
2022/02/01 02:38:44;;;;;;;19.77;7.63;;;;;;;;;;5071156;28;20549;-75
2022/02/01 02:46:35;;;;;;;19.27;8.17;;;;;;;;;;5073088;28;20039;-75
2022/02/01 02:49:04;;;;;;;18.40;8.30;;;;;;;;;;5054378;28;20473;-75
2022/02/01 02:51:29;;;;;;;17.97;8.00;;;;;;;;;;5071264;28;20027;-75
2022/02/01 02:53:55;;;;;;;21.60;7.67;;;;;;;;;;5072383;28;20024;-74
2022/02/01 02:56:20;;;;;;;22.90;7.47;;;;;;;;;;5071028;28;20016;-74
2022/02/01 02:58:53;;;;;;;22.60;7.80;;;;;;;;;;5072431;28;20099;-75
2022/02/01 03:01:19;;;;;;;19.67;8.10;;;;;;;;;;5071039;28;20472;-75
2022/02/01 03:03:45;;;;;;;17.30;7.80;;;;;;;;;;5072021;28;20024;-75
2022/02/01 03:06:11;;;;;;;21.67;8.23;;;;;;;;;;5072555;28;20027;-75
2022/02/01 03:08:37;;;;;;;17.70;6.93;;;;;;;;;;5070606;28;20025;-75
2022/02/01 03:11:06;;;;;;;23.73;7.60;;;;;;;;;;5070066;28;20464;-73
2022/02/01 03:13:33;;;;;;;21.33;7.13;;;;;;;;;;5072498;28;20546;-74
2022/02/01 03:21:14;;;;;;;19.10;6.97;;;;;;;;;;5071925;28;20155;-75
2022/02/01 03:23:40;;;;;;;22.60;7.50;;;;;;;;;;5070809;28;20119;-74
2022/02/01 03:26:05;;;;;;;24.83;7.43;;;;;;;;;;5070072;28;20075;-74
2022/02/01 03:28:31;;;;;;;21.67;8.43;;;;;;;;;;5071880;28;20552;-75
2022/02/01 03:30:57;;;;;;;26.47;7.47;;;;;;;;;;5070112;28;20024;-74
2022/02/01 03:33:23;;;;;;;22.40;7.73;;;;;;;;;;5053778;28;20028;-74
2022/02/01 03:35:48;;;;;;;18.50;7.50;;;;;;;;;;5070170;28;20144;-75
2022/02/01 03:38:14;;;;;;;20.00;7.67;;;;;;;;;;5071687;28;20021;-75
2022/02/01 03:40:40;;;;;;;24.00;7.37;;;;;;;;;;5071457;28;20080;-74
2022/02/01 03:43:05;;;;;;;25.03;7.97;;;;;;;;;;5071497;28;20029;-75
2022/02/01 03:45:32;;;;;;;21.77;9.00;;;;;;;;;;5071579;28;20058;-76
2022/02/01 03:47:57;;;;;;;25.20;7.40;;;;;;;;;;5071478;28;20024;-75
2022/02/01 03:50:23;;;;;;;21.87;8.33;;;;;;;;;;5071225;28;20052;-74
2022/02/01 03:52:49;;;;;;;17.67;7.47;;;;;;;;;;5069909;28;20036;-74
2022/02/01 03:55:15;;;;;;;28.20;7.80;;;;;;;;;;5087020;28;20032;-75
2022/02/01 03:57:41;;;;;;;27.23;9.07;;;;;;;;;;5069898;28;20024;-75
2022/02/01 04:00:07;;;;;;;30.13;7.63;;;;;;;;;;5071287;28;20025;-75
2022/02/01 04:02:33;;;;;;;18.67;7.70;;;;;;;;;;5071479;28;20032;-76
2022/02/01 04:04:58;;;;;;;24.00;6.60;;;;;;;;;;5071584;28;20032;-74
2022/02/01 04:07:24;;;;;;;24.77;8.50;;;;;;;;;;5071464;28;20036;-75
2022/02/01 04:09:50;;;;;;;21.27;7.43;;;;;;;;;;5069567;28;20388;-75
2022/02/01 04:12:16;;;;;;;24.80;7.33;;;;;;;;;;5069624;28;20032;-74
2022/02/01 04:14:42;;;;;;;25.73;8.27;;;;;;;;;;5070013;28;20060;-75
2022/02/01 04:17:10;;;;;;;21.60;8.20;;;;;;;;;;5071093;28;20029;-76
2022/02/01 04:19:36;;;;;;;19.80;7.70;;;;;;;;;;5070545;28;20048;-75
2022/02/01 04:22:03;;;;;;;19.47;7.13;;;;;;;;;;5071599;28;20492;-75
2022/02/01 04:24:35;;;;;;;19.13;7.90;;;;;;;;;;5072528;28;20035;-75
2022/02/01 04:27:00;;;;;;;24.85;7.43;;;;;;;;;;5069543;28;20035;-75
2022/02/01 04:29:27;;;;;;;28.50;7.80;;;;;;;;;;5070499;28;20028;-75
2022/02/01 04:31:53;;;;;;;17.80;7.33;;;;;;;;;;5070973;28;20038;-74
2022/02/01 04:34:18;;;;;;;15.90;7.20;;;;;;;;;;5072149;28;20445;-74
2022/02/01 04:36:44;;;;;;;22.17;7.93;;;;;;;;;;5069984;28;20444;-76
2022/02/01 04:39:10;;;;;;;18.27;7.53;;;;;;;;;;5070413;28;20244;-75
2022/02/01 04:41:36;;;;;;;16.83;7.43;;;;;;;;;;5070237;28;20100;-75
2022/02/01 04:44:01;;;;;;;13.70;5.83;;;;;;;;;;5068235;28;20117;-75
2022/02/01 04:46:29;;;;;;;16.77;6.67;;;;;;;;;;5069125;28;20510;-75
2022/02/01 04:49:01;;;;;;;15.13;5.80;;;;;;;;;;5070020;28;20040;-74
2022/02/01 04:51:26;;;;;;;;;;;;;;;;;;5069247;28;20055;-75
2022/02/01 04:53:52;;;;;;;16.20;5.97;;;;;;;;;;5068778;28;20364;-74
2022/02/01 04:56:18;;;;;;;20.87;6.13;;;;;;;;;;5069138;28;20032;-75
2022/02/01 04:58:44;;;;;;;24.23;7.20;;;;;;;;;;5069063;28;20024;-74
2022/02/01 05:01:12;;;;;;;18.90;6.90;;;;;;;;;;5070596;28;20032;-76
2022/02/01 05:03:38;;;;;;;17.07;7.37;;;;;;;;;;5068970;28;20047;-75
2022/02/01 05:06:04;;;;;;;13.87;5.40;;;;;;;;;;5070132;28;20075;-74
2022/02/01 05:08:30;;;;;;;19.77;7.07;;;;;;;;;;5070297;28;20036;-74
2022/02/01 05:10:56;;;;;;;18.53;5.30;;;;;;;;;;5068334;28;20031;-75
2022/02/01 05:16:07;;;;;;;19.50;7.53;;;;;;;;;;5069943;28;20060;-76
2022/02/01 05:18:45;;;;;;;13.57;6.17;;;;;;;;;;5070050;28;20035;-75
2022/02/01 05:21:18;;;;;;;18.53;6.10;;;;;;;;;;5068868;28;20130;-76
2022/02/01 05:23:44;;;;;;;16.93;5.97;;;;;;;;;;5068637;28;20024;-76
2022/02/01 05:26:09;;;;;;;19.43;6.00;;;;;;;;;;5068710;28;20477;-73
2022/02/01 05:28:37;;;;;;;21.57;6.53;;;;;;;;;;5067352;28;20028;-75
2022/02/01 05:31:03;;;;;;;19.90;7.37;;;;;;;;;;5068102;28;20032;-74
2022/02/01 05:33:30;;;;;;;13.70;5.73;;;;;;;;;;5085181;28;20115;-75
2022/02/01 05:35:56;;;;;;;17.13;6.47;;;;;;;;;;5067714;28;20073;-75
2022/02/01 05:38:22;;;;;;;17.77;6.33;;;;;;;;;;5067788;28;20025;-75
2022/02/01 05:40:47;;;;;;;22.03;6.63;;;;;;;;;;5067840;28;20040;-75
2022/02/01 05:43:19;;;;;;;21.13;7.63;;;;;;;;;;5069689;28;20157;-75
2022/02/01 05:45:45;;;;;;;21.27;6.85;;;;;;;;;;5067900;28;20376;-75
2022/02/01 05:48:12;;;;;;;15.57;7.00;;;;;;;;;;5068271;28;20028;-75
2022/02/01 05:50:40;;;;;;;12.07;5.67;;;;;;;;;;5069490;28;20033;-75
2022/02/01 05:53:06;;;;;;;29.13;7.27;;;;;;;;;;5068217;28;20129;-75
2022/02/01 05:55:34;;;;;;;19.87;6.87;;;;;;;;;;5067212;28;20658;-75
2022/02/01 05:58:00;;;;;;;21.43;6.80;;;;;;;;;;5069531;28;20406;-75
2022/02/01 06:00:25;;;;;;;18.87;7.33;;;;;;;;;;5069270;28;20020;-75
2022/02/01 06:02:51;;;;;;;21.23;6.40;;;;;;;;;;5069763;28;20025;-75
2022/02/01 06:05:17;;;;;;;16.77;6.90;;;;;;;;;;5068120;28;20028;-76
2022/02/01 06:07:43;;;;;;;14.50;6.20;;;;;;;;;;5068122;28;20089;-76
2022/02/01 06:10:09;;;;;;;19.93;7.10;;;;;;;;;;5067730;28;20056;-75
2022/02/01 06:12:41;;;;;;;15.70;6.93;;;;;;;;;;5068683;28;20050;-74
2022/02/01 06:15:07;;;;;;;19.05;6.60;;;;;;;;;;5050852;28;20158;-76
2022/02/01 06:17:32;;;;;;;23.93;6.77;;;;;;;;;;5047177;28;20045;-76
2022/02/01 06:19:59;;;;;;;16.60;6.30;;;;;;;;;;5048535;28;20036;-76
2022/02/01 06:22:24;;;;;;;14.87;6.40;;;;;;;;;;5046536;28;20174;-75
2022/02/01 06:24:52;;;;;;;20.00;6.00;;;;;;;;;;5061720;28;20573;-75
2022/02/01 06:27:17;;;;;;;16.53;5.77;;;;;;;;;;5069035;28;20055;-74
2022/02/01 06:29:43;;;;;;;17.17;10.93;;;;;;;;;;5066302;28;20059;-75
2022/02/01 06:32:09;;;;;;;20.93;6.03;;;;;;;;;;5071594;28;20033;-75
2022/02/01 06:34:34;;;;;;;17.03;6.70;;;;;;;;;;5066974;28;20035;-74
2022/02/01 06:37:00;;;;;;;14.90;6.33;;;;;;;;;;5080258;28;20374;-74
2022/02/01 06:39:27;;;;;;;13.90;6.07;;;;;;;;;;5080103;28;20083;-74
2022/02/01 06:41:53;;;;;;;16.40;7.07;;;;;;;;;;5070985;28;20373;-75
2022/02/01 06:44:19;;;;;;;17.53;6.17;;;;;;;;;;5069328;28;20104;-76
2022/02/01 06:46:45;;;;;;;16.00;5.70;;;;;;;;;;5072316;28;20110;-75
2022/02/01 06:49:11;;;;;;;20.67;7.40;;;;;;;;;;5076970;28;20058;-75
2022/02/01 06:51:42;;;;;;;16.13;6.90;;;;;;;;;;5066492;28;20031;-75
2022/02/01 06:54:09;;;;;;;11.80;6.07;;;;;;;;;;5083253;28;20046;-75
2022/02/01 06:56:36;;;;;;;20.70;7.67;;;;;;;;;;5072284;28;20062;-75
2022/02/01 06:59:04;;;;;;;18.03;7.43;;;;;;;;;;5079870;28;20526;-74
2022/02/01 07:01:31;;;;;;;16.57;6.47;;;;;;;;;;5079930;28;20020;-75
2022/02/01 07:03:57;;;;;;;20.10;6.97;;;;;;;;;;5088310;28;20032;-74
2022/02/01 07:06:23;;;;;;;20.27;6.40;;;;;;;;;;5070160;28;20032;-75
2022/02/01 07:08:49;;;;;;;17.37;7.40;;;;;;;;;;5076295;28;20064;-75
2022/02/01 07:11:19;;;;;;;16.77;7.53;;;;;;;;;;5080370;28;20205;-74
2022/02/01 07:13:47;;;;;;;12.17;6.40;;;;;;;;;;5073395;28;20024;-75
2022/02/01 07:16:13;;;;;;;24.03;7.03;;;;;;;;;;5072631;28;20044;-75
2022/02/01 07:18:39;;;;;;;17.83;8.37;;;;;;;;;;5085004;28;20384;-75
2022/02/01 07:21:05;;;;;;;16.00;6.73;;;;;;;;;;5078081;28;20024;-75
2022/02/01 07:23:32;;;;;;;17.50;6.57;;;;;;;;;;5077491;28;20028;-76
2022/02/01 07:25:57;;;;;;;17.53;6.77;;;;;;;;;;5087016;28;20024;-75
2022/02/01 07:28:25;;;;;;;21.60;7.33;;;;;;;;;;5074125;28;20024;-74
2022/02/01 07:30:52;;;;;;;23.17;8.37;;;;;;;;;;5082611;28;20025;-74
2022/02/01 07:33:18;;;;;;;19.73;7.23;;;;;;;;;;5080503;28;20032;-74
2022/02/01 07:35:46;;;;;;;15.83;8.03;;;;;;;;;;5076335;28;20384;-75
2022/02/01 07:38:16;;;;;;;13.47;6.33;;;;;;;;;;5058743;28;20500;-75
2022/02/01 07:40:41;;;;;;;18.47;7.50;;;;;;;;;;5065340;28;20040;-75
2022/02/01 07:43:07;;;;;;;18.23;6.80;;;;;;;;;;5063655;28;20029;-74
2022/02/01 07:45:32;;;;;;;16.07;7.23;;;;;;;;;;5065696;28;20044;-75
2022/02/01 07:48:01;;;;;;;18.93;6.67;;;;;;;;;;5078865;28;20388;-76
2022/02/01 07:50:27;;;;;;;17.97;6.97;;;;;;;;;;5064085;28;20024;-76
2022/02/01 07:52:53;;;;;;;13.33;7.20;;;;;;;;;;5062688;28;20028;-74
2022/02/01 07:55:18;;;;;;;15.80;7.80;;;;;;;;;;5064544;28;20081;-75
2022/02/01 07:57:44;;;;;;;19.13;6.83;;;;;;;;;;5062186;28;20024;-75
2022/02/01 08:00:11;;;;;;;9.73;6.20;;;;;;;;;;5060364;28;20787;-74
2022/02/01 08:02:37;;;;;;;13.47;6.20;;;;;;;;;;5063502;28;20096;-75
2022/02/01 08:05:04;;;;;;;19.30;7.80;;;;;;;;;;5065964;28;20032;-74
2022/02/01 08:07:30;;;;;;;11.80;6.23;;;;;;;;;;5061769;28;20112;-76
2022/02/01 08:10:00;;;;;;;20.40;7.07;;;;;;;;;;5063217;28;20028;-76
2022/02/01 08:20:07;;;;;;;26.67;11.30;;;;;;;;;;5065793;28;20530;-74
2022/02/01 08:24:59;;;;;;;11.97;5.83;;;;;;;;;;5065789;28;20690;-75
2022/02/01 08:27:24;;;;;;;19.70;7.43;;;;;;;;;;5061665;28;20032;-76
2022/02/01 08:29:51;;;;;;;22.17;10.30;;;;;;;;;;5060948;28;20047;-74
2022/02/01 08:32:16;;;;;;;16.93;8.23;;;;;;;;;;5065428;28;20029;-74
2022/02/01 08:34:42;;;;;;;19.37;6.57;;;;;;;;;;5063601;28;20601;-73
2022/02/01 08:37:07;;;;;;;19.27;6.90;;;;;;;;;;5063038;28;20032;-74
2022/02/01 08:39:33;;;;;;;26.37;13.20;;;;;;;;;;5056783;28;20392;-75
2022/02/01 08:41:59;;;;;;;15.57;5.47;;;;;;;;;;5059917;28;20035;-76
2022/02/01 08:44:28;;;;;;;15.33;6.17;;;;;;;;;;5060334;28;20136;-75
2022/02/01 08:46:54;;;;;;;12.20;5.10;;;;;;;;;;5057406;28;20124;-75
2022/02/01 08:49:20;;;;;;;12.63;5.37;;;;;;;;;;5064542;28;20028;-75
2022/02/01 08:51:55;;;;;;;9.97;5.67;;;;;;;;;;5068519;28;20789;-74
2022/02/01 08:54:28;;;;;;;7.70;5.07;;;;;;;;;;5064446;28;20115;-75
2022/02/01 08:59:39;;;;;;;8.33;4.93;;;;;;;;;;5061174;28;20047;-76
2022/02/01 09:02:07;;;;;;;10.40;5.23;;;;;;;;;;5060601;28;20032;-74
2022/02/01 09:04:33;;;;;;;11.60;5.53;;;;;;;;;;5062707;28;20498;-75
2022/02/01 09:07:00;;;;;;;11.23;5.30;;;;;;;;;;5058536;28;20106;-75
2022/02/01 09:09:29;;;;;;;12.77;6.13;;;;;;;;;;5060293;28;20126;-76
2022/02/01 09:11:54;;;;;;;11.37;5.30;;;;;;;;;;5059281;28;20034;-74
2022/02/01 09:14:20;;;;;;;11.67;4.47;;;;;;;;;;5058691;28;20029;-75
2022/02/01 09:16:47;;;;;;;9.93;5.47;;;;;;;;;;5060463;28;20032;-73
2022/02/01 09:19:15;;;;;;;10.10;5.57;;;;;;;;;;5061804;28;20032;-75
2022/02/01 09:21:41;;;;;;;12.23;4.63;;;;;;;;;;5042292;28;20062;-73
2022/02/01 09:24:07;;;;;;;13.17;5.30;;;;;;;;;;5061051;28;20029;-75
2022/02/01 09:26:34;;;;;;;13.20;5.73;;;;;;;;;;5065641;28;20028;-75
2022/02/01 09:28:59;;;;;;;9.93;5.60;;;;;;;;;;5059392;28;20129;-74
2022/02/01 09:31:25;;;;;;;12.13;5.63;;;;;;;;;;5063340;28;20021;-73
2022/02/01 09:33:51;;;;;;;8.93;4.80;;;;;;;;;;5064327;28;20078;-73
2022/02/01 09:36:17;;;;;;;14.67;5.73;;;;;;;;;;5066459;28;20032;-74
2022/02/01 09:38:43;;;;;;;9.70;5.43;;;;;;;;;;5065417;28;20800;-74
2022/02/01 09:41:09;;;;;;;11.40;5.07;;;;;;;;;;5062114;28;20035;-75
2022/02/01 09:43:34;;;;;;;13.70;6.00;;;;;;;;;;5060597;28;20119;-73
2022/02/01 09:46:01;;;;;;;14.27;6.43;;;;;;;;;;5065844;28;20107;-75
2022/02/01 09:48:27;;;;;;;8.33;5.00;;;;;;;;;;5061921;28;20349;-74
2022/02/01 09:50:55;;;;;;;11.57;5.20;;;;;;;;;;5062185;28;20028;-73
2022/02/01 09:53:20;;;;;;;9.00;4.23;;;;;;;;;;5063211;28;20021;-75
2022/02/01 09:55:49;;;;;;;8.80;4.03;;;;;;;;;;5061852;28;20090;-75
2022/02/01 09:58:15;;;;;;;15.07;6.27;;;;;;;;;;5061799;28;20110;-75
2022/02/01 10:00:47;;;;;;;13.80;4.93;;;;;;;;;;5063694;28;20064;-74
2022/02/01 10:03:20;;;;;;;8.80;5.57;;;;;;;;;;5063056;28;20032;-77
2022/02/01 10:06:07;;;;;;;13.63;5.30;;;;;;;;;;5076736;28;20029;-73
2022/02/01 10:08:34;;;;;;;7.93;4.87;;;;;;;;;;5062443;28;20561;-73
2022/02/01 10:10:59;;;;;;;9.23;4.07;;;;;;;;;;5077635;28;20112;-76
2022/02/01 10:13:25;;;;;;;11.17;4.87;;;;;;;;;;5062869;28;20203;-75
2022/02/01 10:16:02;;;;;;;7.70;4.73;;;;;;;;;;5062540;28;20427;-73
2022/02/01 10:18:32;;;;;;;9.50;4.80;;;;;;;;;;5058583;28;20016;-74
2022/02/01 10:21:24;;;;;;;8.50;4.20;;;;;;;;;;5045136;28;20055;-75
2022/02/01 10:23:49;;;;;;;9.13;3.83;;;;;;;;;;5055781;28;20105;-74
2022/02/01 10:26:21;;;;;;;11.00;3.90;;;;;;;;;;5064425;28;20480;-74
2022/02/01 10:37:14;;;;;;;5.22;3.05;;;;;;;;;;5060420;28;20024;-75
2022/02/01 10:39:40;;;;;;;6.97;3.50;;;;;;;;;;5060516;28;20472;-73
2022/02/01 10:42:09;;;;;;;4.30;2.60;;;;;;;;;;5069407;28;20064;-76
2022/02/01 10:44:48;;;;;;;5.70;2.43;;;;;;;;;;5067348;28;20042;-76
2022/02/01 10:47:28;;;;;;;8.60;3.37;;;;;;;;;;5067661;28;20036;-74
2022/02/01 10:49:54;;;;;;;4.63;2.97;;;;;;;;;;5061150;28;20029;-75
2022/02/01 10:52:20;;;;;;;7.90;3.13;;;;;;;;;;5059245;28;20036;-75
2022/02/01 10:54:46;;;;;;;4.33;2.77;;;;;;;;;;5063623;28;20822;-73
2022/02/01 10:57:12;;;;;;;9.47;2.50;;;;;;;;;;5062020;28;20094;-73
2022/02/01 10:59:39;;;;;;;8.53;2.67;;;;;;;;;;5057712;28;20039;-74
2022/02/01 11:02:05;;;;;;;13.70;2.83;;;;;;;;;;5064648;28;20027;-75
2022/02/01 11:04:34;;;;;;;5.50;2.57;;;;;;;;;;5063615;28;22116;-75
2022/02/01 11:07:01;;;;;;;5.87;2.10;;;;;;;;;;5046862;28;20028;-75
2022/02/01 11:09:31;;;;;;;9.27;2.70;;;;;;;;;;5060769;28;20032;-74
2022/02/01 11:12:08;;;;;;;6.77;2.40;;;;;;;;;;5064522;28;20135;-74
2022/02/01 11:14:43;;;;;;;5.83;2.67;;;;;;;;;;5067200;28;20569;-76
2022/02/01 11:17:16;;;;;;;6.90;2.37;;;;;;;;;;5064727;28;20032;-76
2022/02/01 11:19:59;;;;;;;7.27;1.90;;;;;;;;;;5066697;28;20036;-75
2022/02/01 11:22:35;;;;;;;7.47;1.80;;;;;;;;;;5067770;28;20039;-76
2022/02/01 11:25:39;;;;;;;12.33;2.83;;;;;;;;;;5066130;28;20035;-76
2022/02/01 11:30:41;;;;;;;9.77;2.40;;;;;;;;;;5065512;28;20028;-75
2022/02/01 11:33:11;;;;;;;7.77;1.87;;;;;;;;;;5066645;28;20041;-74
2022/02/01 11:35:39;;;;;;;6.23;1.83;;;;;;;;;;5067159;28;20032;-75
2022/02/01 11:38:22;;;;;;;5.23;1.77;;;;;;;;;;5061240;28;20048;-74
2022/02/01 11:40:57;;;;;;;3.50;1.20;;;;;;;;;;5068507;28;20040;-75
2022/02/01 11:43:24;;;;;;;13.40;2.20;;;;;;;;;;5065527;28;20028;-74
2022/02/01 11:46:02;;;;;;;8.17;2.30;;;;;;;;;;5066247;28;20033;-76
2022/02/01 11:48:31;;;;;;;18.63;2.93;;;;;;;;;;5061644;28;20036;-75
2022/02/01 11:51:00;;;;;;;4.70;2.13;;;;;;;;;;5064178;28;20541;-75
2022/02/01 11:53:31;;;;;;;4.87;1.37;;;;;;;;;;5063389;28;20790;-75
2022/02/01 11:55:59;;;;;;;6.78;2.00;;;;;;;;;;5066092;28;20464;-77
2022/02/01 11:58:46;;;;;;;8.40;1.90;;;;;;;;;;5063015;28;20036;-76
2022/02/01 12:01:23;;;;;;;9.30;2.00;;;;;;;;;;5068860;28;20067;-75
2022/02/01 12:04:03;;;;;;;14.33;2.23;;;;;;;;;;5068528;28;20128;-77
2022/02/01 12:06:38;;;;;;;8.10;3.47;;;;;;;;;;5066198;28;20532;-75
2022/02/01 12:09:13;;;;;;;13.13;2.83;;;;;;;;;;5077396;28;20044;-74
2022/02/01 12:11:42;;;;;;;6.97;1.90;;;;;;;;;;5046443;28;20064;-74
2022/02/01 12:14:08;;;;;;;12.97;2.20;;;;;;;;;;5067015;28;20023;-74
2022/02/01 12:16:34;;;;;;;10.40;2.00;;;;;;;;;;5069837;28;20111;-75
2022/02/01 12:19:15;;;;;;;9.77;2.93;;;;;;;;;;5069644;28;20029;-76
2022/02/01 12:21:46;;;;;;;7.27;1.50;;;;;;;;;;5065305;28;20036;-76
2022/02/01 12:24:12;;;;;;;10.73;1.85;;;;;;;;;;5067417;28;20070;-75
2022/02/01 12:26:40;;;;;;;5.83;1.83;;;;;;;;;;5064629;28;20065;-75
2022/02/01 12:29:13;;;;;;;4.30;1.70;;;;;;;;;;5064089;28;20032;-75
2022/02/01 12:31:41;;;;;;;7.57;2.00;;;;;;;;;;5064379;28;20036;-74
2022/02/01 12:34:14;;;;;;;5.97;1.73;;;;;;;;;;5063999;28;20475;-74
2022/02/01 12:36:50;;;;;;;12.17;4.13;;;;;;;;;;5060192;28;20029;-74
2022/02/01 12:39:26;;;;;;;4.27;2.00;;;;;;;;;;5060866;28;20076;-76
2022/02/01 12:42:27;;;;;;;9.87;2.90;;;;;;;;;;5049217;28;20346;-76
2022/02/01 12:47:16;;;;;;;14.63;2.40;;;;;;;;;;5063292;28;20023;-76
2022/02/01 12:49:49;;;;;;;5.97;2.13;;;;;;;;;;5067911;28;20056;-75
2022/02/01 12:52:20;;;;;;;11.57;1.53;;;;;;;;;;5073231;28;20033;-75
2022/02/01 12:54:46;;;;;;;13.27;2.43;;;;;;;;;;5067830;28;20078;-74
2022/02/01 12:57:15;;;;;;;8.63;2.00;;;;;;;;;;5063795;28;20032;-75
2022/02/01 12:59:48;;;;;;;4.23;1.53;;;;;;;;;;5061280;28;20025;-75
2022/02/01 13:02:21;;;;;;;8.00;2.07;;;;;;;;;;5064943;28;20404;-74
2022/02/01 13:05:04;;;;;;;15.40;2.23;;;;;;;;;;5064070;28;20028;-75
2022/02/01 13:21:17;;;;;;;8.93;1.40;;;;;;;;;;5071434;28;20140;-76
2022/02/01 13:23:46;;;;;;;5.00;2.38;;;;;;;;;;5068667;28;20047;-75
2022/02/01 13:26:22;;;;;;;6.63;1.80;;;;;;;;;;5066857;28;20036;-75
2022/02/01 13:29:23;;;;;;;12.27;2.47;;;;;;;;;;5063533;28;20348;-76
2022/02/01 13:31:51;;;;;;;10.10;2.83;;;;;;;;;;5063860;28;20064;-74
2022/02/01 13:34:27;;;;;;;10.37;2.10;;;;;;;;;;5064712;28;21183;-75
2022/02/01 13:36:56;;;;;;;10.43;2.23;;;;;;;;;;5064166;28;20469;-73
2022/02/01 13:39:29;;;;;;;10.07;2.53;;;;;;;;;;5059072;28;20182;-75
2022/02/01 13:41:56;;;;;;;7.70;1.60;;;;;;;;;;5064012;28;20602;-76
2022/02/01 13:44:22;;;;;;;10.07;1.87;;;;;;;;;;5060852;28;20442;-76
2022/02/01 13:47:01;;;;;;;9.00;2.13;;;;;;;;;;5062066;28;20496;-74
2022/02/01 13:49:27;;;;;;;8.13;1.90;;;;;;;;;;5042246;28;20609;-74
2022/02/01 13:51:56;;;;;;;5.47;1.87;;;;;;;;;;5059601;28;20112;-75
2022/02/01 13:54:22;;;;;;;8.77;2.30;;;;;;;;;;5063947;28;20127;-76
2022/02/01 13:56:51;;;;;;;5.70;1.60;;;;;;;;;;5061704;28;20028;-75
2022/02/01 13:59:25;;;;;;;14.13;2.73;;;;;;;;;;5061892;28;20032;-74
2022/02/01 14:02:07;;;;;;;14.10;2.20;;;;;;;;;;5061359;28;20514;-74
2022/02/01 14:04:41;;;;;;;6.35;2.22;;;;;;;;;;5059491;28;20032;-76
2022/02/01 14:07:38;;;;;;;5.67;1.87;;;;;;;;;;5078383;28;20476;-76
2022/02/01 14:34:21;;;;;;;10.20;2.70;;;;;;;;;;5061156;28;20036;-73
2022/02/01 14:36:50;;;;;;;5.37;2.00;;;;;;;;;;5058650;28;20425;-75
2022/02/01 14:44:45;;;;;;;13.67;2.60;;;;;;;;;;5062659;28;20547;-74
2022/02/01 14:47:22;;;;;;;5.90;2.20;;;;;;;;;;5060386;28;20036;-75
2022/02/01 14:49:50;;;;;;;7.40;2.03;;;;;;;;;;5056131;28;20838;-76
2022/02/01 14:52:17;;;;;;;10.60;3.17;;;;;;;;;;5046487;28;20032;-75
2022/02/01 14:54:46;;;;;;;3.17;1.43;;;;;;;;;;5068140;28;20420;-76
2022/02/01 15:06:08;;;;;;;6.10;2.30;;;;;;;;;;5073912;28;20128;-76
2022/02/01 15:13:41;;;;;;;4.37;1.93;;;;;;;;;;5070823;28;20552;-74
2022/02/01 15:16:06;;;;;;;5.23;2.20;;;;;;;;;;5079757;28;20033;-76
2022/02/01 15:18:32;;;;;;;5.03;1.87;;;;;;;;;;5067842;28;20089;-76
2022/02/01 15:20:58;;;;;;;8.17;2.13;;;;;;;;;;5073902;28;20130;-75
2022/02/01 15:23:23;;;;;;;2.73;2.13;;;;;;;;;;5066477;28;20488;-76
2022/02/01 15:25:49;;;;;;;7.50;2.60;;;;;;;;;;5071848;28;20066;-74
2022/02/01 15:28:18;;;;;;;16.40;3.03;;;;;;;;;;5070632;28;20085;-75
2022/02/01 15:30:45;;;;;;;2.10;1.60;;;;;;;;;;5071999;28;20117;-76
2022/02/01 15:33:13;;;;;;;4.13;1.80;;;;;;;;;;5071410;28;20043;-76
2022/02/01 15:35:39;;;;;;;6.17;1.40;;;;;;;;;;5076214;28;20033;-75
2022/02/01 15:38:08;;;;;;;4.97;1.77;;;;;;;;;;5077690;28;20169;-76
2022/02/01 15:59:30;;;;;;;2.63;1.20;;;;;;;;;;5080857;28;20456;-75
2022/02/01 16:01:59;;;;;;;6.73;2.23;;;;;;;;;;5077107;28;20062;-74
2022/02/01 16:04:27;;;;;;;4.53;1.50;;;;;;;;;;5073922;28;20400;-75
2022/02/01 16:06:59;;;;;;;10.67;2.50;;;;;;;;;;5077218;28;20139;-75
2022/02/01 16:10:01;;;;;;;4.30;1.90;;;;;;;;;;5074641;28;20054;-75
2022/02/01 16:12:30;;;;;;;6.60;2.17;;;;;;;;;;5081275;28;20704;-75
2022/02/01 16:14:56;;;;;;;5.17;3.43;;;;;;;;;;5071734;28;20524;-75
2022/02/01 16:17:21;;;;;;;2.73;1.43;;;;;;;;;;5077139;28;20103;-75
2022/02/01 16:19:47;;;;;;;8.33;1.67;;;;;;;;;;5074771;28;20030;-75
2022/02/01 16:22:13;;;;;;;3.33;2.17;;;;;;;;;;5075319;28;20109;-74
2022/02/01 16:24:39;;;;;;;7.30;2.00;;;;;;;;;;5079805;28;20032;-73
2022/02/01 16:27:05;;;;;;;5.07;1.57;;;;;;;;;;5079513;28;20087;-75
2022/02/01 16:29:31;;;;;;;1.93;1.43;;;;;;;;;;5082170;28;20020;-75
2022/02/01 16:31:57;;;;;;;4.07;2.07;;;;;;;;;;5058252;28;20330;-76
2022/02/01 16:34:24;;;;;;;4.47;1.60;;;;;;;;;;5080109;28;20412;-74
2022/02/01 16:36:50;;;;;;;7.57;2.80;;;;;;;;;;5078084;28;20036;-75
2022/02/01 16:39:16;;;;;;;7.87;2.97;;;;;;;;;;5079179;28;20068;-74
2022/02/01 16:41:44;;;;;;;2.27;1.40;;;;;;;;;;5075559;28;20020;-74
2022/02/01 16:44:10;;;;;;;3.97;1.73;;;;;;;;;;5080754;28;20115;-76
2022/02/01 16:46:40;;;;;;;4.73;1.70;;;;;;;;;;5076724;28;20044;-75
2022/02/01 16:49:05;;;;;;;3.50;1.93;;;;;;;;;;5080190;28;20027;-75
2022/02/01 16:51:32;;;;;;;3.23;1.80;;;;;;;;;;5079732;28;20020;-76
2022/02/01 16:54:04;;;;;;;3.60;1.80;;;;;;;;;;5077338;28;20032;-75
2022/02/01 16:59:20;;;;;;;2.07;1.87;;;;;;;;;;5078934;28;20067;-74
2022/02/01 17:01:47;;;;;;;7.35;3.15;;;;;;;;;;5078307;28;20111;-75
2022/02/01 17:04:13;;;;;;;6.03;1.70;;;;;;;;;;5077207;28;20384;-74
2022/02/01 17:06:39;;;;;;;2.87;1.70;;;;;;;;;;5062054;28;20028;-74
2022/02/01 17:09:09;;;;;;;4.70;2.27;;;;;;;;;;5074900;28;20071;-74
2022/02/01 17:11:50;;;;;;;6.63;1.60;;;;;;;;;;5078701;28;20494;-75
2022/02/01 17:21:54;;;;;;;2.77;1.50;;;;;;;;;;5077094;28;20443;-74
2022/02/01 17:24:22;;;;;;;1.80;1.67;;;;;;;;;;5075512;28;20097;-75
2022/02/01 17:26:49;;;;;;;4.37;1.67;;;;;;;;;;5076250;28;20116;-75
2022/02/01 17:29:16;;;;;;;2.10;1.73;;;;;;;;;;5075702;28;20032;-75
2022/02/01 17:31:46;;;;;;;3.37;1.73;;;;;;;;;;5075321;28;20127;-75
2022/02/01 17:34:12;;;;;;;5.20;1.73;;;;;;;;;;5076730;28;20028;-74
2022/02/01 17:36:39;;;;;;;2.67;1.80;;;;;;;;;;5079406;28;20024;-75
2022/02/01 17:39:07;;;;;;;3.03;1.63;;;;;;;;;;5080544;28;20044;-74
2022/02/01 17:41:33;;;;;;;2.83;1.20;;;;;;;;;;5081616;28;20025;-74
2022/02/01 17:44:25;;;;;;;1.70;1.33;;;;;;;;;;5077350;28;20063;-77
2022/02/01 17:46:53;;;;;;;3.33;1.05;;;;;;;;;;5095216;28;20115;-75
2022/02/01 17:49:19;;;;;;;3.93;1.50;;;;;;;;;;5074969;28;20032;-75
2022/02/01 17:54:32;;;;;;;2.10;1.43;;;;;;;;;;5080730;28;20128;-75
2022/02/01 17:56:58;;;;;;;1.67;1.10;;;;;;;;;;5075192;28;20479;-75
2022/02/01 17:59:26;;;;;;;3.73;1.10;;;;;;;;;;5080121;28;20389;-75